Whittier, California
Current Conditions -  °F | °C
As of 3:06 AM on Tuesday 21 Oct 2014 (Local Time) from KFUL Reporting Station
Overcast Overcast  
Wind Chill: 66°   Ceiling: 1400
Heat Index: 66°   Visibility: 10mi
Dew Point: 60°   Wind: 0mph
Humidity: 81%   Direction: NA
Pressure: 29.88"   Gusts: NA
Location:  33.98°N, 118.03°W
Report Text: KFUL 211006Z 00000KT 10SM OVC014 19/16 A2988 RMK AO2 T01890156 $
Loading
Personal Weather Stations






























Interactive Weather Map
Tropical Storm Tracking
New forecast layout! Learn more

10-Day Weather Forecast

Advertisements
Track Severe Weather on mobile